Time;durP1;ratioP1;P1;durP2;ratioP2;P2;SDS_P1;SDS_P2;PMS_P1;PMS_P2;Temp;Humidity;BMP_temperature;BMP_pressure;BME280_temperature;BME280_humidity;BME280_pressure;Samples;Min_cycle;Max_cycle;Signal;HPM_P1;HPM_P2
2023/06/15 00:01:16;;;;;;;0.00;0.00;;;;;;;;;;5070721;28;20048;-82
2023/06/15 00:03:43;;;;;;;0.00;0.00;;;;;;;;;;5072055;28;20051;-81
2023/06/15 00:06:09;;;;;;;0.00;0.00;;;;;;;;;;5070637;28;20044;-82
2023/06/15 00:08:35;;;;;;;0.00;0.00;;;;;;;;;;5072255;28;20098;-82
2023/06/15 00:11:01;;;;;;;0.00;0.00;;;;;;;;;;5071932;28;20119;-81
2023/06/15 00:13:27;;;;;;;0.00;0.00;;;;;;;;;;5072179;28;20041;-82
2023/06/15 00:15:53;;;;;;;0.00;0.00;;;;;;;;;;5070514;28;20376;-81
2023/06/15 00:18:19;;;;;;;0.00;0.00;;;;;;;;;;5072037;28;20047;-82
2023/06/15 00:20:45;;;;;;;0.00;0.00;;;;;;;;;;5070447;28;20043;-82
2023/06/15 00:23:11;;;;;;;0.00;0.00;;;;;;;;;;5070796;28;20036;-82
2023/06/15 00:25:37;;;;;;;0.00;0.00;;;;;;;;;;5070552;28;20463;-82
2023/06/15 00:28:04;;;;;;;0.00;0.00;;;;;;;;;;5070840;28;20048;-82
2023/06/15 00:30:30;;;;;;;0.00;0.00;;;;;;;;;;5070508;28;20048;-82
2023/06/15 00:32:56;;;;;;;0.00;0.00;;;;;;;;;;5070904;28;20040;-81
2023/06/15 00:35:22;;;;;;;0.00;0.00;;;;;;;;;;5071825;28;20443;-81
2023/06/15 00:37:48;;;;;;;0.00;0.00;;;;;;;;;;5072127;28;20037;-82
2023/06/15 00:40:14;;;;;;;0.00;0.00;;;;;;;;;;5071788;28;20486;-81
2023/06/15 00:42:41;;;;;;;0.00;0.00;;;;;;;;;;5072019;28;20037;-81
2023/06/15 00:45:07;;;;;;;0.00;0.00;;;;;;;;;;5071781;28;20044;-81
2023/06/15 00:47:38;;;;;;;0.00;0.00;;;;;;;;;;5070528;28;20525;-82
2023/06/15 00:50:09;;;;;;;0.00;0.00;;;;;;;;;;5070700;28;20395;-81
2023/06/15 00:52:36;;;;;;;0.00;0.00;;;;;;;;;;5071136;28;20048;-82
2023/06/15 00:55:03;;;;;;;0.00;0.00;;;;;;;;;;5075721;28;20107;-81
2023/06/15 00:57:32;;;;;;;0.00;0.00;;;;;;;;;;5075651;28;20410;-81
2023/06/15 00:59:59;;;;;;;0.00;0.00;;;;;;;;;;5074946;28;20044;-82
2023/06/15 01:02:27;;;;;;;0.00;0.00;;;;;;;;;;5073911;28;20087;-82
2023/06/15 01:04:54;;;;;;;0.00;0.00;;;;;;;;;;5073671;28;20052;-81
2023/06/15 01:07:20;;;;;;;0.00;0.00;;;;;;;;;;5057180;28;20040;-81
2023/06/15 01:09:48;;;;;;;0.00;0.00;;;;;;;;;;5074809;28;20174;-82
2023/06/15 01:12:14;;;;;;;0.00;0.00;;;;;;;;;;5073951;28;20081;-81
2023/06/15 01:14:41;;;;;;;0.00;0.00;;;;;;;;;;5073388;28;20036;-82
2023/06/15 01:17:15;;;;;;;0.00;0.00;;;;;;;;;;5073644;28;20045;-82
2023/06/15 01:22:41;;;;;;;0.00;0.00;;;;;;;;;;5075028;28;20041;-82
2023/06/15 01:25:33;;;;;;;0.00;0.00;;;;;;;;;;5073496;28;20109;-81
2023/06/15 01:28:01;;;;;;;0.00;0.00;;;;;;;;;;5073250;28;20106;-82
2023/06/15 01:30:32;;;;;;;0.00;0.00;;;;;;;;;;5074476;28;20125;-82
2023/06/15 01:32:58;;;;;;;0.28;0.03;;;;;;;;;;5074545;28;20057;-82
2023/06/15 01:35:24;;;;;;;0.00;0.00;;;;;;;;;;5074408;28;20032;-82
2023/06/15 01:37:50;;;;;;;0.00;0.00;;;;;;;;;;5073409;28;20056;-82
2023/06/15 01:40:17;;;;;;;0.00;0.00;;;;;;;;;;5073383;28;20058;-82
2023/06/15 01:42:43;;;;;;;0.00;0.00;;;;;;;;;;5056429;28;20079;-81
2023/06/15 01:45:09;;;;;;;0.00;0.00;;;;;;;;;;5074464;28;20041;-80
2023/06/15 01:47:37;;;;;;;0.00;0.00;;;;;;;;;;5073025;28;20044;-82
2023/06/15 01:50:03;;;;;;;0.00;0.00;;;;;;;;;;5072760;28;20044;-82
2023/06/15 01:52:29;;;;;;;0.00;0.00;;;;;;;;;;5074103;28;20491;-82
2023/06/15 01:54:55;;;;;;;0.00;0.00;;;;;;;;;;5072801;28;20033;-82
2023/06/15 01:57:22;;;;;;;0.00;0.00;;;;;;;;;;5073904;28;20439;-82
2023/06/15 01:59:48;;;;;;;0.00;0.00;;;;;;;;;;5072747;28;20051;-82
2023/06/15 02:02:17;;;;;;;0.00;0.00;;;;;;;;;;5073800;28;20089;-82
2023/06/15 02:04:43;;;;;;;0.00;0.00;;;;;;;;;;5072031;28;20044;-82
2023/06/15 02:07:09;;;;;;;0.00;0.00;;;;;;;;;;5073951;28;20143;-82
2023/06/15 02:09:35;;;;;;;0.00;0.00;;;;;;;;;;5072452;28;20563;-82
2023/06/15 02:12:01;;;;;;;0.00;0.00;;;;;;;;;;5072422;28;20089;-82
2023/06/15 02:14:28;;;;;;;0.00;0.00;;;;;;;;;;5072645;28;20127;-82
2023/06/15 02:16:56;;;;;;;0.00;0.00;;;;;;;;;;5072146;28;20500;-82
2023/06/15 02:19:22;;;;;;;0.00;0.00;;;;;;;;;;5073824;28;20066;-82
2023/06/15 02:21:48;;;;;;;0.00;0.00;;;;;;;;;;5073552;28;20033;-82
2023/06/15 02:24:16;;;;;;;0.00;0.00;;;;;;;;;;5055658;28;20086;-82
2023/06/15 02:26:42;;;;;;;0.00;0.00;;;;;;;;;;5073498;28;20128;-82
2023/06/15 02:29:08;;;;;;;0.00;0.00;;;;;;;;;;5073464;28;20544;-82
2023/06/15 02:31:34;;;;;;;0.00;0.00;;;;;;;;;;5071930;28;20078;-82
2023/06/15 02:34:00;;;;;;;0.00;0.00;;;;;;;;;;5072357;28;20044;-82
2023/06/15 02:36:28;;;;;;;0.00;0.00;;;;;;;;;;5071634;28;20488;-82
2023/06/15 02:38:54;;;;;;;0.00;0.00;;;;;;;;;;5055298;28;20051;-82
2023/06/15 02:41:20;;;;;;;0.00;0.00;;;;;;;;;;5071639;28;20396;-82
2023/06/15 02:43:46;;;;;;;0.00;0.00;;;;;;;;;;5072156;28;20472;-82
2023/06/15 02:46:12;;;;;;;0.00;0.00;;;;;;;;;;5071569;28;20048;-82
2023/06/15 02:48:38;;;;;;;0.00;0.00;;;;;;;;;;5072046;28;20044;-82
2023/06/15 02:51:04;;;;;;;0.00;0.00;;;;;;;;;;5071714;28;20503;-82
2023/06/15 02:53:30;;;;;;;0.00;0.00;;;;;;;;;;5073043;28;20058;-82
2023/06/15 02:55:57;;;;;;;0.00;0.00;;;;;;;;;;5072479;28;20056;-82
2023/06/15 02:58:24;;;;;;;0.00;0.00;;;;;;;;;;5073005;28;20115;-82
2023/06/15 03:00:51;;;;;;;0.00;0.00;;;;;;;;;;5071059;28;20052;-82
2023/06/15 03:03:22;;;;;;;0.00;0.00;;;;;;;;;;5071439;28;20123;-82
2023/06/15 03:05:48;;;;;;;0.00;0.00;;;;;;;;;;5072859;28;20044;-82
2023/06/15 03:08:15;;;;;;;0.00;0.00;;;;;;;;;;5071334;28;20048;-82
2023/06/15 03:10:41;;;;;;;0.00;0.00;;;;;;;;;;5071403;28;20044;-82
2023/06/15 03:13:07;;;;;;;0.00;0.00;;;;;;;;;;5071551;28;20464;-82
2023/06/15 03:15:34;;;;;;;0.00;0.00;;;;;;;;;;5071032;28;20124;-82
2023/06/15 03:18:01;;;;;;;0.00;0.00;;;;;;;;;;5071574;28;20043;-82
2023/06/15 03:20:32;;;;;;;0.00;0.00;;;;;;;;;;5072553;28;20464;-82
2023/06/15 03:22:58;;;;;;;0.00;0.00;;;;;;;;;;5071111;28;20130;-82
2023/06/15 03:25:25;;;;;;;0.00;0.00;;;;;;;;;;5071378;28;20131;-81
2023/06/15 03:27:53;;;;;;;0.00;0.00;;;;;;;;;;5070894;28;20125;-81
2023/06/15 03:30:19;;;;;;;0.00;0.00;;;;;;;;;;5071382;28;20056;-81
2023/06/15 03:32:47;;;;;;;0.00;0.00;;;;;;;;;;5071034;28;20075;-81
2023/06/15 03:35:13;;;;;;;0.00;0.00;;;;;;;;;;5072342;28;20395;-82
2023/06/15 03:37:39;;;;;;;0.00;0.00;;;;;;;;;;5071206;28;20119;-82
2023/06/15 03:40:05;;;;;;;0.00;0.00;;;;;;;;;;5054355;28;20039;-82
2023/06/15 03:42:32;;;;;;;0.00;0.00;;;;;;;;;;5070900;28;20040;-82
2023/06/15 03:44:58;;;;;;;0.00;0.00;;;;;;;;;;5071308;28;20085;-82
2023/06/15 03:47:25;;;;;;;0.00;0.00;;;;;;;;;;5071044;28;20048;-82
2023/06/15 03:49:51;;;;;;;0.00;0.00;;;;;;;;;;5071220;28;20052;-82
2023/06/15 03:52:17;;;;;;;0.00;0.00;;;;;;;;;;5070798;28;20483;-82
2023/06/15 03:54:43;;;;;;;0.00;0.00;;;;;;;;;;5070811;28;20052;-81
2023/06/15 03:57:09;;;;;;;0.00;0.00;;;;;;;;;;5070608;28;20110;-82
2023/06/15 03:59:35;;;;;;;0.00;0.00;;;;;;;;;;5072321;28;20037;-82
2023/06/15 04:02:01;;;;;;;0.00;0.00;;;;;;;;;;5072171;28;20090;-82
2023/06/15 04:04:27;;;;;;;0.00;0.00;;;;;;;;;;5072247;28;20091;-82
2023/06/15 04:06:55;;;;;;;0.00;0.00;;;;;;;;;;5071974;28;20101;-82
2023/06/15 04:09:21;;;;;;;0.00;0.00;;;;;;;;;;5070653;28;20037;-81
2023/06/15 04:11:47;;;;;;;0.00;0.00;;;;;;;;;;5072286;28;20098;-81
2023/06/15 04:14:14;;;;;;;0.00;0.00;;;;;;;;;;5070651;28;20102;-82
2023/06/15 04:16:40;;;;;;;0.00;0.00;;;;;;;;;;5070510;28;20051;-82
2023/06/15 04:19:07;;;;;;;0.00;0.00;;;;;;;;;;5070904;28;20056;-82
2023/06/15 04:21:33;;;;;;;0.00;0.00;;;;;;;;;;5070539;28;20459;-82
2023/06/15 04:23:59;;;;;;;0.00;0.00;;;;;;;;;;5070713;28;20041;-81
2023/06/15 04:26:26;;;;;;;0.00;0.00;;;;;;;;;;5070897;28;20047;-82
2023/06/15 04:28:57;;;;;;;0.00;0.00;;;;;;;;;;5072611;28;20517;-82
2023/06/15 04:31:24;;;;;;;0.00;0.00;;;;;;;;;;5074536;28;20422;-82
2023/06/15 04:33:52;;;;;;;0.00;0.00;;;;;;;;;;5074307;28;20500;-82
2023/06/15 04:36:18;;;;;;;0.00;0.00;;;;;;;;;;5075682;28;20052;-82
2023/06/15 04:38:46;;;;;;;0.00;0.00;;;;;;;;;;5074338;28;20047;-82
2023/06/15 04:41:12;;;;;;;0.00;0.00;;;;;;;;;;5075775;28;20037;-82
2023/06/15 04:43:38;;;;;;;0.00;0.00;;;;;;;;;;5074246;28;20094;-82
2023/06/15 04:46:04;;;;;;;0.00;0.00;;;;;;;;;;5075518;28;20044;-81
2023/06/15 04:48:32;;;;;;;0.00;0.00;;;;;;;;;;5074365;28;20084;-82
2023/06/15 04:50:59;;;;;;;0.00;0.00;;;;;;;;;;5075474;28;20102;-82
2023/06/15 04:53:25;;;;;;;0.00;0.00;;;;;;;;;;5073958;28;20076;-82
2023/06/15 04:55:51;;;;;;;0.00;0.00;;;;;;;;;;5075385;28;20056;-82
2023/06/15 04:58:17;;;;;;;0.00;0.00;;;;;;;;;;5075535;28;20036;-82
2023/06/15 05:00:43;;;;;;;0.00;0.00;;;;;;;;;;5074413;28;20052;-82
2023/06/15 05:03:10;;;;;;;0.00;0.00;;;;;;;;;;5073873;28;20421;-82
2023/06/15 05:05:36;;;;;;;0.00;0.00;;;;;;;;;;5073931;28;20127;-82
2023/06/15 05:08:02;;;;;;;0.00;0.00;;;;;;;;;;5073720;28;20083;-82
2023/06/15 05:10:29;;;;;;;0.00;0.00;;;;;;;;;;5075195;28;20050;-82
2023/06/15 05:12:55;;;;;;;0.00;0.00;;;;;;;;;;5075058;28;20369;-82
2023/06/15 05:15:21;;;;;;;0.00;0.00;;;;;;;;;;5074088;28;20048;-82
2023/06/15 05:17:47;;;;;;;0.00;0.00;;;;;;;;;;5073614;28;20521;-82
2023/06/15 05:20:14;;;;;;;0.00;0.00;;;;;;;;;;5074956;28;20044;-82
2023/06/15 05:22:40;;;;;;;0.00;0.00;;;;;;;;;;5073813;28;20036;-82
2023/06/15 05:25:06;;;;;;;0.00;0.00;;;;;;;;;;5075429;28;20052;-81
2023/06/15 05:27:35;;;;;;;0.00;0.00;;;;;;;;;;5074045;28;20040;-82
2023/06/15 05:30:01;;;;;;;0.00;0.00;;;;;;;;;;5074044;28;20082;-82
2023/06/15 05:32:27;;;;;;;0.00;0.00;;;;;;;;;;5074648;28;20442;-82
2023/06/15 05:34:53;;;;;;;0.00;0.00;;;;;;;;;;5073626;28;20044;-81
2023/06/15 05:37:19;;;;;;;0.00;0.00;;;;;;;;;;5074436;28;20086;-82
2023/06/15 05:39:46;;;;;;;0.00;0.00;;;;;;;;;;5073378;28;20051;-82
2023/06/15 05:42:12;;;;;;;0.00;0.00;;;;;;;;;;5073376;28;20044;-82
2023/06/15 05:44:38;;;;;;;0.00;0.00;;;;;;;;;;5073360;28;20041;-83
2023/06/15 05:47:04;;;;;;;0.00;0.00;;;;;;;;;;5056547;28;20323;-82
2023/06/15 05:49:30;;;;;;;0.00;0.00;;;;;;;;;;5072810;28;20055;-82
2023/06/15 05:51:56;;;;;;;0.00;0.00;;;;;;;;;;5073012;28;20036;-82
2023/06/15 05:54:23;;;;;;;0.00;0.00;;;;;;;;;;5072775;28;20040;-82
2023/06/15 05:56:49;;;;;;;0.00;0.00;;;;;;;;;;5074367;28;20049;-82
2023/06/15 05:59:15;;;;;;;0.00;0.00;;;;;;;;;;5072566;28;20495;-82
2023/06/15 06:01:42;;;;;;;0.00;0.00;;;;;;;;;;5072794;28;20118;-81
2023/06/15 06:04:08;;;;;;;0.00;0.00;;;;;;;;;;5072697;28;20445;-82
2023/06/15 06:06:34;;;;;;;0.00;0.00;;;;;;;;;;5074355;28;20115;-82
2023/06/15 06:09:00;;;;;;;0.00;0.00;;;;;;;;;;5072814;28;20040;-81
2023/06/15 06:11:27;;;;;;;0.00;0.00;;;;;;;;;;5072543;28;20124;-82
2023/06/15 06:13:53;;;;;;;0.00;0.00;;;;;;;;;;5072447;28;20044;-82
2023/06/15 06:16:20;;;;;;;0.00;0.00;;;;;;;;;;5072403;28;20488;-82
2023/06/15 06:18:46;;;;;;;0.00;0.00;;;;;;;;;;5073637;28;20497;-82
2023/06/15 06:21:12;;;;;;;0.00;0.00;;;;;;;;;;5074020;28;20108;-82
2023/06/15 06:23:39;;;;;;;0.00;0.00;;;;;;;;;;5073566;28;20473;-82
2023/06/15 06:26:05;;;;;;;0.00;0.00;;;;;;;;;;5072526;28;20475;-82
2023/06/15 06:28:31;;;;;;;0.00;0.00;;;;;;;;;;5073449;28;20048;-82
2023/06/15 06:30:57;;;;;;;0.00;0.00;;;;;;;;;;5073497;28;20040;-82
2023/06/15 06:33:23;;;;;;;0.00;0.00;;;;;;;;;;5072256;28;20033;-82
2023/06/15 06:35:49;;;;;;;0.00;0.00;;;;;;;;;;5072104;28;20496;-82
2023/06/15 06:38:16;;;;;;;0.00;0.00;;;;;;;;;;5071734;28;20115;-82
2023/06/15 06:40:42;;;;;;;0.00;0.00;;;;;;;;;;5073488;28;20051;-82
2023/06/15 06:43:08;;;;;;;0.00;0.00;;;;;;;;;;5073087;28;20488;-82
2023/06/15 06:45:34;;;;;;;0.00;0.00;;;;;;;;;;5073310;28;20048;-82
2023/06/15 06:48:00;;;;;;;0.00;0.00;;;;;;;;;;5071766;28;20442;-82
2023/06/15 06:50:26;;;;;;;0.00;0.00;;;;;;;;;;5073112;28;20044;-81
2023/06/15 06:52:52;;;;;;;0.00;0.00;;;;;;;;;;5073217;28;20345;-82
2023/06/15 06:55:18;;;;;;;0.00;0.00;;;;;;;;;;5054706;28;20079;-82
2023/06/15 06:57:44;;;;;;;0.00;0.00;;;;;;;;;;5073167;28;20048;-81
2023/06/15 07:00:10;;;;;;;0.00;0.00;;;;;;;;;;5072713;28;20052;-82
2023/06/15 07:02:36;;;;;;;0.00;0.00;;;;;;;;;;5071872;28;20050;-82
2023/06/15 07:05:02;;;;;;;0.00;0.00;;;;;;;;;;5071402;28;20051;-82
2023/06/15 07:07:28;;;;;;;0.00;0.00;;;;;;;;;;5071854;28;20048;-83
2023/06/15 07:09:54;;;;;;;0.00;0.00;;;;;;;;;;5071414;28;20552;-83
2023/06/15 07:12:20;;;;;;;0.00;0.00;;;;;;;;;;5071620;28;20048;-83
2023/06/15 07:14:46;;;;;;;0.00;0.00;;;;;;;;;;5072445;28;20037;-83
2023/06/15 07:17:12;;;;;;;0.00;0.00;;;;;;;;;;5072800;28;20044;-83
2023/06/15 07:19:38;;;;;;;0.00;0.00;;;;;;;;;;5071056;28;20045;-83
2023/06/15 07:22:05;;;;;;;0.00;0.00;;;;;;;;;;5072642;28;20452;-82
2023/06/15 07:24:31;;;;;;;0.00;0.00;;;;;;;;;;5071163;28;20053;-82
2023/06/15 07:26:57;;;;;;;0.00;0.00;;;;;;;;;;5072711;28;20097;-83
2023/06/15 07:29:23;;;;;;;0.00;0.00;;;;;;;;;;5072259;28;20071;-83
2023/06/15 07:31:49;;;;;;;0.00;0.00;;;;;;;;;;5071272;28;20040;-83
2023/06/15 07:34:16;;;;;;;0.00;0.00;;;;;;;;;;5072470;28;20078;-83
2023/06/15 07:36:41;;;;;;;0.00;0.00;;;;;;;;;;5071381;28;20051;-83
2023/06/15 07:39:07;;;;;;;0.00;0.00;;;;;;;;;;5071142;28;20044;-82
2023/06/15 07:41:33;;;;;;;0.00;0.00;;;;;;;;;;5071330;28;20139;-82
2023/06/15 07:44:00;;;;;;;0.00;0.00;;;;;;;;;;5071045;28;20396;-83
2023/06/15 07:46:26;;;;;;;0.00;0.00;;;;;;;;;;5071306;28;20432;-82
2023/06/15 07:48:52;;;;;;;0.00;0.00;;;;;;;;;;5071025;28;20131;-83
2023/06/15 07:51:18;;;;;;;0.00;0.00;;;;;;;;;;5071001;28;20083;-83
2023/06/15 07:53:46;;;;;;;0.00;0.00;;;;;;;;;;5070868;28;20048;-83
2023/06/15 07:56:12;;;;;;;0.00;0.00;;;;;;;;;;5054329;28;20048;-83
2023/06/15 07:58:38;;;;;;;0.00;0.00;;;;;;;;;;5072302;28;20040;-84
2023/06/15 08:01:04;;;;;;;0.00;0.00;;;;;;;;;;5071201;28;20040;-84
2023/06/15 08:03:30;;;;;;;0.00;0.00;;;;;;;;;;5074222;28;20092;-84
2023/06/15 08:05:56;;;;;;;0.00;0.00;;;;;;;;;;5075143;28;20071;-84
2023/06/15 08:08:22;;;;;;;0.00;0.00;;;;;;;;;;5076459;28;20167;-84
2023/06/15 08:10:48;;;;;;;0.00;0.00;;;;;;;;;;5076374;28;20063;-84
2023/06/15 08:13:14;;;;;;;0.00;0.00;;;;;;;;;;5076522;28;20491;-84
2023/06/15 08:15:40;;;;;;;0.00;0.00;;;;;;;;;;5074636;28;20051;-83
2023/06/15 08:18:06;;;;;;;0.00;0.00;;;;;;;;;;5075269;28;20040;-83
2023/06/15 08:20:32;;;;;;;0.00;0.00;;;;;;;;;;5074666;28;20045;-84
2023/06/15 08:22:58;;;;;;;0.00;0.00;;;;;;;;;;5076346;28;20441;-84
2023/06/15 08:25:25;;;;;;;0.00;0.00;;;;;;;;;;5076184;28;20048;-84
2023/06/15 08:27:51;;;;;;;0.00;0.00;;;;;;;;;;5074909;28;20601;-84
2023/06/15 08:30:17;;;;;;;0.00;0.00;;;;;;;;;;5075864;28;20083;-84
2023/06/15 08:32:43;;;;;;;0.00;0.00;;;;;;;;;;5075053;28;20403;-86
2023/06/15 08:35:09;;;;;;;0.00;0.00;;;;;;;;;;5075664;28;20114;-85
2023/06/15 08:37:35;;;;;;;0.00;0.00;;;;;;;;;;5057892;28;20437;-86
2023/06/15 08:40:06;;;;;;;0.00;0.00;;;;;;;;;;5074150;28;20463;-85
2023/06/15 08:42:33;;;;;;;0.00;0.00;;;;;;;;;;5076033;28;20062;-85
2023/06/15 08:44:59;;;;;;;0.00;0.00;;;;;;;;;;5074177;28;20052;-84
2023/06/15 08:47:26;;;;;;;0.00;0.00;;;;;;;;;;5074194;28;20044;-84
2023/06/15 08:49:53;;;;;;;0.00;0.00;;;;;;;;;;5057308;28;20131;-83
2023/06/15 08:52:20;;;;;;;0.00;0.00;;;;;;;;;;5075420;28;20074;-82
2023/06/15 08:54:47;;;;;;;0.00;0.00;;;;;;;;;;5073874;28;20059;-82
2023/06/15 08:57:13;;;;;;;0.00;0.00;;;;;;;;;;5074198;28;20105;-83
2023/06/15 08:59:40;;;;;;;0.00;0.00;;;;;;;;;;5072447;28;20056;-83
2023/06/15 09:02:13;;;;;;;0.00;0.00;;;;;;;;;;5074155;28;20048;-84
2023/06/15 09:04:39;;;;;;;0.00;0.00;;;;;;;;;;5073920;28;20492;-83
2023/06/15 09:07:05;;;;;;;0.00;0.00;;;;;;;;;;5072721;28;20048;-83
2023/06/15 09:09:31;;;;;;;0.00;0.00;;;;;;;;;;5073643;28;20052;-82
2023/06/15 09:11:57;;;;;;;0.00;0.00;;;;;;;;;;5072738;28;20145;-83
2023/06/15 09:14:23;;;;;;;0.00;0.00;;;;;;;;;;5073763;28;20044;-83
2023/06/15 09:16:50;;;;;;;0.00;0.00;;;;;;;;;;5073863;28;20557;-83
2023/06/15 09:19:16;;;;;;;0.00;0.00;;;;;;;;;;5072515;28;20037;-82
2023/06/15 09:21:43;;;;;;;0.00;0.00;;;;;;;;;;5073661;28;20090;-82
2023/06/15 09:24:09;;;;;;;0.00;0.00;;;;;;;;;;5073617;28;20487;-82
2023/06/15 09:26:38;;;;;;;0.00;0.00;;;;;;;;;;5072364;28;20048;-82
2023/06/15 09:29:08;;;;;;;0.00;0.00;;;;;;;;;;5072741;28;20056;-81
2023/06/15 09:31:35;;;;;;;0.00;0.00;;;;;;;;;;5073668;28;20131;-82
2023/06/15 09:34:01;;;;;;;0.00;0.00;;;;;;;;;;5072414;28;20094;-83
2023/06/15 09:36:27;;;;;;;0.00;0.00;;;;;;;;;;5073645;28;20083;-86
2023/06/15 09:38:55;;;;;;;0.00;0.00;;;;;;;;;;5074489;28;20476;-83
2023/06/15 09:41:21;;;;;;;0.00;0.00;;;;;;;;;;5073496;28;20040;-85
2023/06/15 09:43:47;;;;;;;0.00;0.00;;;;;;;;;;5072123;28;20465;-83
2023/06/15 09:46:15;;;;;;;0.00;0.00;;;;;;;;;;5071955;28;20104;-82
2023/06/15 09:48:42;;;;;;;0.00;0.00;;;;;;;;;;5073540;28;20072;-83
2023/06/15 09:51:08;;;;;;;0.00;0.00;;;;;;;;;;5055139;28;20483;-82
2023/06/15 09:53:35;;;;;;;0.00;0.00;;;;;;;;;;5073537;28;20055;-82
2023/06/15 09:56:02;;;;;;;0.00;0.00;;;;;;;;;;5034424;28;1071352;-83
2023/06/15 09:58:29;;;;;;;0.00;0.00;;;;;;;;;;5073384;28;20067;-82
2023/06/15 10:00:57;;;;;;;0.00;0.00;;;;;;;;;;5072789;28;20483;-83
2023/06/15 10:03:23;;;;;;;0.00;0.00;;;;;;;;;;5056386;28;20429;-84
2023/06/15 10:05:52;;;;;;;0.00;0.00;;;;;;;;;;5056091;28;20086;-83
2023/06/15 10:08:18;;;;;;;0.00;0.00;;;;;;;;;;5074862;28;20051;-85
2023/06/15 10:10:45;;;;;;;0.00;0.00;;;;;;;;;;5074503;28;20044;-84
2023/06/15 10:13:20;;;;;;;0.00;0.00;;;;;;;;;;5056992;28;20379;-84
2023/06/15 10:15:51;;;;;;;0.20;0.00;;;;;;;;;;5074055;28;20048;-84
2023/06/15 10:18:18;;;;;;;0.00;0.00;;;;;;;;;;5072877;28;20098;-86
2023/06/15 10:20:44;;;;;;;0.00;0.00;;;;;;;;;;5055816;28;20506;-83
2023/06/15 10:23:13;;;;;;;0.00;0.00;;;;;;;;;;5072569;28;20040;-85
2023/06/15 10:25:41;;;;;;;0.10;0.00;;;;;;;;;;5071651;28;20562;-83
2023/06/15 10:28:11;;;;;;;0.00;0.00;;;;;;;;;;5072570;28;20076;-82
2023/06/15 10:30:56;;;;;;;0.00;0.00;;;;;;;;;;5072100;28;20045;-84
2023/06/15 10:33:28;;;;;;;0.00;0.00;;;;;;;;;;5072404;28;20080;-83
2023/06/15 10:35:58;;;;;;;0.00;0.00;;;;;;;;;;5072076;28;20419;-84
2023/06/15 10:38:27;;;;;;;0.00;0.00;;;;;;;;;;5072332;28;20048;-84
2023/06/15 10:40:53;;;;;;;0.00;0.00;;;;;;;;;;5071903;28;20096;-84
2023/06/15 10:43:25;;;;;;;0.00;0.00;;;;;;;;;;5072197;28;20045;-83
2023/06/15 10:45:51;;;;;;;0.00;0.00;;;;;;;;;;5072016;28;20048;-83
2023/06/15 10:48:21;;;;;;;0.00;0.00;;;;;;;;;;5072189;28;20154;-84
2023/06/15 10:50:48;;;;;;;0.00;0.00;;;;;;;;;;5073090;28;20040;-84
2023/06/15 10:53:24;;;;;;;0.00;0.00;;;;;;;;;;5072119;28;20259;-84
2023/06/15 10:55:55;;;;;;;0.00;0.00;;;;;;;;;;5071716;28;20056;-84
2023/06/15 10:58:21;;;;;;;0.00;0.00;;;;;;;;;;5073390;28;20150;-83
2023/06/15 11:01:06;;;;;;;0.00;0.00;;;;;;;;;;5073117;28;20051;-83
2023/06/15 11:03:33;;;;;;;0.00;0.00;;;;;;;;;;5071834;28;20109;-83
2023/06/15 11:06:03;;;;;;;0.00;0.00;;;;;;;;;;5071777;28;20175;-83
2023/06/15 11:08:41;;;;;;;0.00;0.00;;;;;;;;;;5071634;28;20048;-84
2023/06/15 11:11:10;;;;;;;0.00;0.00;;;;;;;;;;5071380;28;20056;-83
2023/06/15 11:13:36;;;;;;;0.00;0.00;;;;;;;;;;5071546;28;20098;-84
2023/06/15 11:16:09;;;;;;;0.00;0.00;;;;;;;;;;5072612;28;20443;-83
2023/06/15 11:18:36;;;;;;;0.00;0.00;;;;;;;;;;5071348;28;20121;-83
2023/06/15 11:21:02;;;;;;;0.00;0.00;;;;;;;;;;5071262;28;20100;-84
2023/06/15 11:23:32;;;;;;;0.00;0.00;;;;;;;;;;5071534;28;20085;-84
2023/06/15 11:26:01;;;;;;;0.00;0.00;;;;;;;;;;5071787;28;20070;-84
2023/06/15 11:28:31;;;;;;;0.00;0.00;;;;;;;;;;5071523;28;20048;-84
2023/06/15 11:30:58;;;;;;;0.00;0.00;;;;;;;;;;5071069;28;20049;-84
2023/06/15 11:33:27;;;;;;;0.00;0.00;;;;;;;;;;5072682;28;20044;-84
2023/06/15 11:35:54;;;;;;;0.00;0.00;;;;;;;;;;5072644;28;20047;-83
2023/06/15 11:38:26;;;;;;;0.00;0.00;;;;;;;;;;5072596;28;20404;-84
2023/06/15 11:41:13;;;;;;;0.00;0.00;;;;;;;;;;5074956;28;20045;-84
2023/06/15 11:43:40;;;;;;;0.00;0.00;;;;;;;;;;5071167;28;20068;-85
2023/06/15 11:46:09;;;;;;;0.00;0.00;;;;;;;;;;5071197;28;20128;-84
2023/06/15 11:48:35;;;;;;;0.00;0.00;;;;;;;;;;5072571;28;20436;-84
2023/06/15 11:51:01;;;;;;;0.00;0.00;;;;;;;;;;5072293;28;20306;-84
2023/06/15 11:53:27;;;;;;;0.00;0.00;;;;;;;;;;5054431;28;20437;-84
2023/06/15 11:55:54;;;;;;;0.00;0.00;;;;;;;;;;5070986;28;20127;-84
2023/06/15 11:58:22;;;;;;;0.00;0.00;;;;;;;;;;5072237;28;20032;-89
2023/06/15 12:00:48;;;;;;;0.00;0.00;;;;;;;;;;5071267;28;20128;-85
2023/06/15 12:03:15;;;;;;;0.00;0.00;;;;;;;;;;5070927;28;20049;-85
2023/06/15 12:05:41;;;;;;;0.00;0.00;;;;;;;;;;5071100;28;20051;-84
2023/06/15 12:08:07;;;;;;;0.00;0.00;;;;;;;;;;5054077;28;20036;-84
2023/06/15 12:10:34;;;;;;;0.00;0.00;;;;;;;;;;5071235;28;20427;-84
2023/06/15 12:13:00;;;;;;;0.00;0.00;;;;;;;;;;5070931;28;20080;-84
2023/06/15 12:15:26;;;;;;;0.00;0.00;;;;;;;;;;5071182;28;20150;-84
2023/06/15 12:17:54;;;;;;;0.00;0.00;;;;;;;;;;5072097;28;20162;-84
2023/06/15 12:20:20;;;;;;;0.00;0.00;;;;;;;;;;5071046;28;20052;-84
2023/06/15 12:22:46;;;;;;;0.00;0.00;;;;;;;;;;5053905;28;20040;-85
2023/06/15 12:25:13;;;;;;;0.00;0.00;;;;;;;;;;5054342;28;20392;-84
2023/06/15 12:27:50;;;;;;;0.00;0.00;;;;;;;;;;5072009;28;20037;-85
2023/06/15 12:30:17;;;;;;;0.00;0.00;;;;;;;;;;5070995;28;20040;-84
2023/06/15 12:32:47;;;;;;;0.00;0.00;;;;;;;;;;5072060;28;20072;-85
2023/06/15 12:35:37;;;;;;;0.00;0.00;;;;;;;;;;5071157;28;20049;-85
2023/06/15 12:38:06;;;;;;;0.00;0.00;;;;;;;;;;5072079;28;20055;-84
2023/06/15 12:40:33;;;;;;;0.20;0.13;;;;;;;;;;5070625;28;20075;-84
2023/06/15 12:43:06;;;;;;;0.00;0.00;;;;;;;;;;5070846;28;20080;-84
2023/06/15 12:45:36;;;;;;;0.00;0.00;;;;;;;;;;5071032;28;20037;-84
2023/06/15 12:48:04;;;;;;;0.00;0.00;;;;;;;;;;5070592;28;20492;-85
2023/06/15 12:50:31;;;;;;;0.00;0.00;;;;;;;;;;5056994;28;20458;-84
2023/06/15 12:52:58;;;;;;;0.00;0.00;;;;;;;;;;5057381;28;20040;-84
2023/06/15 12:55:26;;;;;;;0.00;0.00;;;;;;;;;;5074585;28;20492;-84
2023/06/15 12:57:53;;;;;;;0.00;0.00;;;;;;;;;;5075350;28;20044;-85
2023/06/15 13:00:20;;;;;;;0.00;0.00;;;;;;;;;;5057860;28;20040;-85
2023/06/15 13:02:46;;;;;;;0.00;0.00;;;;;;;;;;5074333;28;20063;-84
2023/06/15 13:05:12;;;;;;;0.00;0.00;;;;;;;;;;5057440;28;20429;-84
2023/06/15 13:07:38;;;;;;;0.00;0.00;;;;;;;;;;5073782;28;20040;-84
2023/06/15 13:10:06;;;;;;;0.00;0.00;;;;;;;;;;5077090;28;20045;-84
2023/06/15 13:12:32;;;;;;;0.00;0.00;;;;;;;;;;5073704;28;20044;-85
2023/06/15 13:14:59;;;;;;;0.00;0.00;;;;;;;;;;5075172;28;20484;-85
2023/06/15 13:17:25;;;;;;;0.00;0.00;;;;;;;;;;5074981;28;20400;-85
2023/06/15 13:19:51;;;;;;;0.00;0.00;;;;;;;;;;5074828;28;20048;-85
2023/06/15 13:22:17;;;;;;;0.00;0.00;;;;;;;;;;5074810;28;20051;-84
2023/06/15 13:24:43;;;;;;;0.00;0.00;;;;;;;;;;5073897;28;20036;-83
2023/06/15 13:27:11;;;;;;;0.00;0.00;;;;;;;;;;5073764;28;20044;-84
2023/06/15 13:29:37;;;;;;;0.00;0.00;;;;;;;;;;5073670;28;20549;-84
2023/06/15 13:32:07;;;;;;;0.00;0.00;;;;;;;;;;5073440;28;20033;-84
2023/06/15 13:34:33;;;;;;;0.00;0.00;;;;;;;;;;5073472;28;20036;-84
2023/06/15 13:36:59;;;;;;;0.00;0.00;;;;;;;;;;5074934;28;20045;-84
2023/06/15 13:39:25;;;;;;;0.00;0.00;;;;;;;;;;5073405;28;20059;-85
2023/06/15 13:41:51;;;;;;;0.00;0.00;;;;;;;;;;5073750;28;20048;-85
2023/06/15 13:44:17;;;;;;;0.00;0.00;;;;;;;;;;5073095;28;20093;-84
2023/06/15 13:46:43;;;;;;;0.00;0.00;;;;;;;;;;5073520;28;20045;-83
2023/06/15 13:49:09;;;;;;;0.00;0.00;;;;;;;;;;5072960;28;20078;-84
2023/06/15 13:51:36;;;;;;;0.00;0.00;;;;;;;;;;5056743;28;20051;-84
2023/06/15 13:54:02;;;;;;;0.00;0.00;;;;;;;;;;5072864;28;20051;-84
2023/06/15 13:56:28;;;;;;;0.00;0.00;;;;;;;;;;5074136;28;20052;-89
2023/06/15 13:58:55;;;;;;;0.00;0.00;;;;;;;;;;5073121;28;20040;-84
2023/06/15 14:01:24;;;;;;;0.00;0.00;;;;;;;;;;5071821;28;20119;-84
2023/06/15 14:03:54;;;;;;;0.00;0.00;;;;;;;;;;5074345;28;20075;-84
2023/06/15 14:06:20;;;;;;;0.00;0.00;;;;;;;;;;5073100;28;20090;-84
2023/06/15 14:08:47;;;;;;;0.00;0.00;;;;;;;;;;5073823;28;20033;-84
2023/06/15 14:11:17;;;;;;;0.00;0.00;;;;;;;;;;5072976;28;20044;-84
2023/06/15 14:13:50;;;;;;;0.00;0.00;;;;;;;;;;5072654;28;20051;-84
2023/06/15 14:16:16;;;;;;;0.00;0.00;;;;;;;;;;5074103;28;20087;-84
2023/06/15 14:18:42;;;;;;;0.00;0.00;;;;;;;;;;5073850;28;20040;-83
2023/06/15 14:21:08;;;;;;;0.00;0.00;;;;;;;;;;5072808;28;20432;-83
2023/06/15 14:23:34;;;;;;;0.00;0.00;;;;;;;;;;5072241;28;20132;-83
2023/06/15 14:26:02;;;;;;;0.03;0.00;;;;;;;;;;5072555;28;20123;-83
2023/06/15 14:28:29;;;;;;;0.00;0.00;;;;;;;;;;5072634;28;20376;-84
2023/06/15 14:30:55;;;;;;;0.00;0.00;;;;;;;;;;5076091;28;20047;-83
2023/06/15 14:33:22;;;;;;;0.00;0.00;;;;;;;;;;5072286;28;20040;-83
2023/06/15 14:35:48;;;;;;;0.00;0.00;;;;;;;;;;5073596;28;20106;-83
2023/06/15 14:38:14;;;;;;;0.00;0.00;;;;;;;;;;5072037;28;20110;-83
2023/06/15 14:40:40;;;;;;;0.00;0.00;;;;;;;;;;5072438;28;20043;-84
2023/06/15 14:43:06;;;;;;;0.00;0.00;;;;;;;;;;5072900;28;20036;-83
2023/06/15 14:45:32;;;;;;;0.00;0.00;;;;;;;;;;5073751;28;20051;-83